createdAt,value
2019-03-16T00:00:58.772Z,4.05
2019-03-16T00:02:03.585Z,4.55
2019-03-16T00:03:07.876Z,4.33
2019-03-16T00:04:12.172Z,5.12
2019-03-16T00:05:19.100Z,4.03
2019-03-16T00:06:23.488Z,3.95
2019-03-16T00:07:33.258Z,4.55
2019-03-16T00:08:34.356Z,4.78
2019-03-16T00:09:38.737Z,3.98
2019-03-16T00:10:43.508Z,4.40
2019-03-16T00:11:51.090Z,4.60
2019-03-16T00:13:00.687Z,5.53
2019-03-16T00:14:05.397Z,4.87
2019-03-16T00:15:10.211Z,5.87
2019-03-16T00:16:14.751Z,4.92
2019-03-16T00:17:26.102Z,4.00
2019-03-16T00:18:31.257Z,4.85
2019-03-16T00:19:35.469Z,5.05
2019-03-16T00:20:42.282Z,4.72
2019-03-16T00:21:50.182Z,6.05
2019-03-16T00:22:55.648Z,4.47
2019-03-16T00:24:01.788Z,4.55
2019-03-16T00:25:08.086Z,4.55
2019-03-16T00:26:13.657Z,5.42
2019-03-16T00:27:36.770Z,6.65
2019-03-16T00:28:41.230Z,4.97
2019-03-16T00:29:46.278Z,4.55
2019-03-16T00:30:52.139Z,5.75
2019-03-16T00:31:56.592Z,5.72
2019-03-16T00:33:03.600Z,5.97
2019-03-16T00:34:07.915Z,5.30
2019-03-16T00:35:12.292Z,5.37
2019-03-16T00:36:22.625Z,4.55
2019-03-16T00:37:27.366Z,4.12
2019-03-16T00:38:31.568Z,4.33
2019-03-16T00:39:37.328Z,3.90
2019-03-16T00:40:45.558Z,4.00
2019-03-16T00:41:49.786Z,4.00
2019-03-16T00:42:54.238Z,4.97
2019-03-16T00:43:58.423Z,4.10
2019-03-16T00:45:03.555Z,4.15
2019-03-16T00:46:07.998Z,3.27
2019-03-16T00:47:12.481Z,3.72
2019-03-16T00:48:24.407Z,2.52
2019-03-16T00:49:28.785Z,3.27
2019-03-16T00:50:34.197Z,2.70
2019-03-16T00:51:38.500Z,3.80
2019-03-16T00:52:42.845Z,3.52
2019-03-16T00:53:47.232Z,3.12
2019-03-16T00:54:53.584Z,3.25
2019-03-16T00:55:59.033Z,3.00
2019-03-16T00:57:03.301Z,2.30
2019-03-16T00:58:09.300Z,3.30
2019-03-16T00:59:13.615Z,3.35
2019-03-16T01:00:17.979Z,3.05
2019-03-16T01:01:23.327Z,3.72
2019-03-16T01:02:27.757Z,4.08
2019-03-16T01:03:32.088Z,3.72
2019-03-16T01:04:36.422Z,2.98
2019-03-16T01:05:41.008Z,2.95
2019-03-16T01:06:48.162Z,2.15
2019-03-16T01:07:52.472Z,3.15
2019-03-16T01:08:57.235Z,2.67
2019-03-16T01:10:01.629Z,3.20
2019-03-16T01:11:06.216Z,2.92
2019-03-16T01:12:10.838Z,2.92
2019-03-16T01:13:43.773Z,2.83
2019-03-16T01:16:36.398Z,3.80
2019-03-16T01:17:44.484Z,3.40
2019-03-16T01:18:49.539Z,2.80
2019-03-16T01:20:08.575Z,3.70
2019-03-16T01:21:16.161Z,2.85
2019-03-16T01:22:58.070Z,3.70
2019-03-16T01:24:02.492Z,2.75
2019-03-16T01:25:17.821Z,2.92
2019-03-16T01:26:28.703Z,3.05
2019-03-16T01:27:33.518Z,3.08
2019-03-16T01:28:37.765Z,3.62
2019-03-16T01:29:43.097Z,3.40
2019-03-16T01:30:47.634Z,2.40
2019-03-16T01:31:53.780Z,3.08
2019-03-16T01:33:00.684Z,2.83
2019-03-16T01:34:05.891Z,3.15
2019-03-16T01:35:16.400Z,4.00
2019-03-16T01:36:30.276Z,3.10
2019-03-16T01:37:35.336Z,2.50
2019-03-16T01:38:39.877Z,2.55
2019-03-16T01:39:49.907Z,2.75
2019-03-16T01:40:57.345Z,2.45
2019-03-16T01:42:04.500Z,2.65
2019-03-16T01:43:12.680Z,2.25
2019-03-16T01:44:18.508Z,2.85
2019-03-16T01:45:23.578Z,3.42
2019-03-16T01:46:31.688Z,6.05
2019-03-16T01:47:38.353Z,3.45
2019-03-16T01:48:44.485Z,2.87
2019-03-16T01:49:49.476Z,2.72
2019-03-16T01:50:55.255Z,3.20
2019-03-16T01:52:03.117Z,2.83
2019-03-16T01:53:08.296Z,3.05
2019-03-16T01:54:15.829Z,3.67
2019-03-16T01:55:20.916Z,3.30
2019-03-16T01:56:26.438Z,2.67
2019-03-16T01:57:31.397Z,3.45
2019-03-16T01:58:41.410Z,3.00
2019-03-16T01:59:47.876Z,3.15
2019-03-16T02:00:55.244Z,2.92
2019-03-16T02:02:00.889Z,3.10
2019-03-16T02:03:07.479Z,2.72
2019-03-16T02:04:21.182Z,3.83
2019-03-16T02:05:31.516Z,2.60
2019-03-16T02:06:41.256Z,2.52
2019-03-16T02:07:46.631Z,2.30
2019-03-16T02:08:52.324Z,3.58
2019-03-16T02:09:57.240Z,2.25
2019-03-16T02:11:05.334Z,2.83
2019-03-16T02:12:11.892Z,2.85
2019-03-16T02:13:17.800Z,2.60
2019-03-16T02:14:23.675Z,3.08
2019-03-16T02:15:29.083Z,2.70
2019-03-16T02:16:34.197Z,3.20
2019-03-16T02:17:41.062Z,3.08
2019-03-16T02:18:46.167Z,3.05
2019-03-16T02:19:51.991Z,2.77
2019-03-16T02:20:57.048Z,3.95
2019-03-16T02:22:02.350Z,2.98
2019-03-16T02:23:10.263Z,3.58
2019-03-16T02:24:36.675Z,3.12
2019-03-16T02:25:42.369Z,3.47
2019-03-16T02:26:47.423Z,3.67
2019-03-16T02:27:52.408Z,2.77
2019-03-16T02:28:57.668Z,2.85
2019-03-16T02:30:03.608Z,4.25
2019-03-16T02:31:09.400Z,3.40
2019-03-16T02:32:18.825Z,3.35
2019-03-16T02:33:24.297Z,2.98
2019-03-16T02:34:30.817Z,3.37
2019-03-16T02:35:36.025Z,3.12
2019-03-16T02:36:50.126Z,3.67
2019-03-16T02:37:55.837Z,3.98
2019-03-16T02:39:01.312Z,3.92
2019-03-16T02:40:06.721Z,3.72
2019-03-16T02:41:13.870Z,3.35
2019-03-16T02:42:19.571Z,3.00
2019-03-16T02:43:25.197Z,2.67
2019-03-16T02:44:30.471Z,3.40
2019-03-16T02:45:35.778Z,3.27
2019-03-16T02:46:40.839Z,3.30
2019-03-16T02:47:46.393Z,2.70
2019-03-16T02:51:15.583Z,3.25
2019-03-16T02:52:20.634Z,2.80
2019-03-16T02:53:25.023Z,3.90
2019-03-16T02:54:30.381Z,2.72
2019-03-16T02:55:35.485Z,4.30
2019-03-16T02:56:40.979Z,3.15
2019-03-16T02:57:46.012Z,2.90
2019-03-16T02:58:51.287Z,3.75
2019-03-16T02:59:56.275Z,3.85
2019-03-16T03:01:04.322Z,3.30
2019-03-16T03:02:10.195Z,3.17
2019-03-16T03:03:28.525Z,2.80
2019-03-16T03:04:22.022Z,3.58
2019-03-16T03:05:29.649Z,3.37
2019-03-16T03:06:36.335Z,2.40
2019-03-16T03:07:44.318Z,3.35
2019-03-16T03:08:49.646Z,3.52
2019-03-16T03:09:54.773Z,2.92
2019-03-16T03:11:00.286Z,2.67
2019-03-16T03:12:06.490Z,3.75
2019-03-16T03:13:14.590Z,3.22
2019-03-16T03:14:19.600Z,3.00
2019-03-16T03:15:24.522Z,2.80
2019-03-16T03:16:29.509Z,3.33
2019-03-16T03:17:34.505Z,2.80
2019-03-16T03:18:39.642Z,3.50
2019-03-16T03:19:44.875Z,3.08
2019-03-16T03:20:49.868Z,2.80
2019-03-16T03:21:54.995Z,3.85
2019-03-16T03:23:00.155Z,3.52
2019-03-16T03:24:05.340Z,3.58
2019-03-16T03:25:10.759Z,3.95
2019-03-16T03:26:15.803Z,3.40
2019-03-16T03:27:20.678Z,4.50
2019-03-16T03:28:25.610Z,4.60
2019-03-16T03:29:30.869Z,3.33
2019-03-16T03:30:35.927Z,2.98
2019-03-16T03:31:40.114Z,2.42
2019-03-16T03:32:47.199Z,4.80
2019-03-16T03:34:02.084Z,3.10
2019-03-16T03:35:04.185Z,2.65
2019-03-16T03:36:12.163Z,3.67
2019-03-16T03:37:18.300Z,3.10
2019-03-16T03:38:22.532Z,3.40
2019-03-16T03:39:27.611Z,3.47
2019-03-16T03:40:33.069Z,3.60
2019-03-16T03:41:38.775Z,4.50
2019-03-16T03:42:47.165Z,2.87
2019-03-16T03:43:53.816Z,3.27
2019-03-16T03:44:58.860Z,4.47
2019-03-16T03:46:12.757Z,4.65
2019-03-16T03:47:19.179Z,4.55
2019-03-16T03:48:24.119Z,2.70
2019-03-16T03:49:29.550Z,3.83
2019-03-16T03:50:34.523Z,3.90
2019-03-16T03:51:39.715Z,4.10
2019-03-16T03:52:44.812Z,4.20
2019-03-16T03:53:49.749Z,5.67
2019-03-16T03:54:54.872Z,3.47
2019-03-16T03:55:59.768Z,3.70
2019-03-16T03:57:05.000Z,3.10
2019-03-16T03:58:10.071Z,3.17
2019-03-16T03:59:15.197Z,3.50
2019-03-16T04:00:20.109Z,3.20
2019-03-16T04:01:26.202Z,3.08
2019-03-16T04:02:31.289Z,3.72
2019-03-16T04:03:42.083Z,3.42
2019-03-16T04:04:47.381Z,3.08
2019-03-16T04:06:01.075Z,3.85
2019-03-16T04:07:06.334Z,3.52
2019-03-16T04:08:11.353Z,3.60
2019-03-16T04:09:18.381Z,3.35
2019-03-16T04:10:23.277Z,3.80
2019-03-16T04:11:28.282Z,3.80
2019-03-16T04:12:33.175Z,3.10
2019-03-16T04:13:38.058Z,3.10
2019-03-16T04:14:43.085Z,3.10
2019-03-16T04:15:50.721Z,3.00
2019-03-16T04:16:55.582Z,4.15
2019-03-16T04:18:03.830Z,3.08
2019-03-16T04:19:08.811Z,3.25
2019-03-16T04:20:16.381Z,3.20
2019-03-16T04:21:21.726Z,4.37
2019-03-16T04:22:27.113Z,4.05
2019-03-16T04:23:31.990Z,5.55
2019-03-16T04:24:37.018Z,6.58
2019-03-16T04:25:42.175Z,6.95
2019-03-16T04:26:47.054Z,6.70
2019-03-16T04:27:51.945Z,5.60
2019-03-16T04:28:57.820Z,6.47
2019-03-16T04:30:02.833Z,5.47
2019-03-16T04:31:07.776Z,6.00
2019-03-16T04:32:12.724Z,5.10
2019-03-16T04:33:17.673Z,5.55
2019-03-16T04:34:29.164Z,4.20
2019-03-16T04:35:29.666Z,4.65
2019-03-16T04:36:34.940Z,4.85
2019-03-16T04:37:39.862Z,4.97
2019-03-16T04:38:45.228Z,5.53
2019-03-16T04:39:51.265Z,7.10
2019-03-16T04:40:56.180Z,5.95
2019-03-16T04:42:01.203Z,7.47
2019-03-16T04:43:06.648Z,7.20
2019-03-16T04:46:27.433Z,8.00
2019-03-16T04:47:32.409Z,8.45
2019-03-16T04:48:37.316Z,8.50
2019-03-16T04:49:42.293Z,7.08
2019-03-16T04:50:47.476Z,7.70
2019-03-16T04:51:52.471Z,8.85
2019-03-16T04:52:57.961Z,7.78
2019-03-16T04:54:03.329Z,8.60
2019-03-16T04:55:08.324Z,9.28
2019-03-16T04:56:14.234Z,8.70
2019-03-16T04:57:24.620Z,8.53
2019-03-16T04:58:29.778Z,9.93
2019-03-16T04:59:41.961Z,9.40
2019-03-16T05:00:47.049Z,7.92
2019-03-16T05:01:55.577Z,8.78
2019-03-16T05:03:01.083Z,8.20
2019-03-16T05:04:07.708Z,8.50
2019-03-16T05:05:12.885Z,9.55
2019-03-16T05:06:22.320Z,9.20
2019-03-16T05:07:27.890Z,9.75
2019-03-16T05:08:34.309Z,9.50
2019-03-16T05:09:39.162Z,10.43
2019-03-16T05:10:44.497Z,10.05
2019-03-16T05:11:49.724Z,10.35
2019-03-16T05:12:54.952Z,9.23
2019-03-16T05:13:59.893Z,9.48
2019-03-16T05:15:07.487Z,10.08
2019-03-16T05:16:12.693Z,7.75
2019-03-16T05:17:17.871Z,8.10
2019-03-16T05:18:23.122Z,8.73
2019-03-16T05:19:28.179Z,8.70
2019-03-16T05:20:33.935Z,8.18
2019-03-16T05:21:38.954Z,7.97
2019-03-16T05:22:44.048Z,7.05
2019-03-16T05:23:49.111Z,9.53
2019-03-16T05:24:54.121Z,7.83
2019-03-16T05:26:05.188Z,8.18
2019-03-16T05:27:10.762Z,8.85
2019-03-16T05:28:16.112Z,8.20
2019-03-16T05:29:22.089Z,8.33
2019-03-16T05:30:27.203Z,8.73
2019-03-16T05:31:32.118Z,8.40
2019-03-16T05:32:39.494Z,8.45
2019-03-16T05:33:47.688Z,7.67
2019-03-16T05:34:56.653Z,8.50
2019-03-16T05:35:59.376Z,7.25
2019-03-16T05:37:04.400Z,7.47
2019-03-16T05:38:09.679Z,7.47
2019-03-16T05:39:14.994Z,9.70
2019-03-16T05:40:20.208Z,10.15
2019-03-16T05:41:26.192Z,12.73
2019-03-16T05:42:32.516Z,16.32
2019-03-16T05:43:37.579Z,15.78
2019-03-16T05:44:42.677Z,7.67
2019-03-16T05:45:49.232Z,15.72
2019-03-16T05:46:54.501Z,8.35
2019-03-16T05:47:59.414Z,5.80
2019-03-16T05:49:13.786Z,6.75
2019-03-16T05:50:19.423Z,6.42
2019-03-16T05:51:24.462Z,8.15
2019-03-16T05:52:29.499Z,10.58
2019-03-16T05:53:34.522Z,11.63
2019-03-16T05:54:41.975Z,21.27
2019-03-16T05:55:46.576Z,11.08
2019-03-16T05:56:51.578Z,24.43
2019-03-16T05:57:56.477Z,14.50
2019-03-16T05:59:01.434Z,9.63
2019-03-16T06:00:09.787Z,8.23
2019-03-16T06:01:14.373Z,9.95
2019-03-16T06:02:26.426Z,13.10
2019-03-16T06:03:35.091Z,8.55
2019-03-16T06:04:40.819Z,7.35
2019-03-16T06:05:45.980Z,7.25
2019-03-16T06:06:52.190Z,10.25
2019-03-16T06:08:23.098Z,5.95
2019-03-16T06:09:28.664Z,5.12
2019-03-16T06:10:45.087Z,5.65
2019-03-16T06:11:53.348Z,5.75
2019-03-16T06:12:58.341Z,5.10
2019-03-16T06:14:04.694Z,4.30
2019-03-16T06:15:16.127Z,5.45
2019-03-16T06:16:17.745Z,4.25
2019-03-16T06:17:23.804Z,3.77
2019-03-16T06:18:42.466Z,5.95
2019-03-16T06:19:57.812Z,4.92
2019-03-16T06:21:03.299Z,5.30
2019-03-16T06:22:08.379Z,5.78
2019-03-16T06:23:18.147Z,5.33
2019-03-16T06:24:28.218Z,5.35
2019-03-16T06:25:38.177Z,4.92
2019-03-16T06:26:45.687Z,5.53
2019-03-16T06:27:52.029Z,5.78
2019-03-16T06:29:13.743Z,5.80
2019-03-16T06:30:20.825Z,6.05
2019-03-16T06:32:01.382Z,5.92
2019-03-16T06:33:22.341Z,6.05
2019-03-16T06:34:28.173Z,4.55
2019-03-16T06:35:33.643Z,6.50
2019-03-16T06:36:38.944Z,5.20
2019-03-16T06:37:44.721Z,4.95
2019-03-16T06:38:52.916Z,6.08
2019-03-16T06:40:03.176Z,5.37
2019-03-16T06:41:10.169Z,6.05
2019-03-16T06:42:15.538Z,5.62
2019-03-16T06:43:20.930Z,5.10
2019-03-16T06:44:26.688Z,5.25
2019-03-16T06:45:34.066Z,5.40
2019-03-16T06:46:46.005Z,5.60
2019-03-16T06:47:50.837Z,5.62
2019-03-16T06:49:11.471Z,5.62
2019-03-16T06:50:54.206Z,6.10
2019-03-16T06:51:58.748Z,5.65
2019-03-16T06:53:36.815Z,6.22
2019-03-16T06:54:42.659Z,5.83
2019-03-16T06:55:47.724Z,5.37
2019-03-16T06:56:52.888Z,5.58
2019-03-16T06:57:57.832Z,5.28
2019-03-16T06:59:03.024Z,5.78
2019-03-16T07:00:08.676Z,6.10
2019-03-16T07:01:16.232Z,4.00
2019-03-16T07:02:20.740Z,4.70
2019-03-16T07:03:27.437Z,4.45
2019-03-16T07:04:34.875Z,4.60
2019-03-16T07:05:44.643Z,4.78
2019-03-16T07:06:49.743Z,4.05
2019-03-16T07:07:55.733Z,5.53
2019-03-16T07:10:43.900Z,3.72
2019-03-16T07:11:48.548Z,3.70
2019-03-16T07:13:09.470Z,2.83
2019-03-16T07:14:17.696Z,2.58
2019-03-16T07:15:21.866Z,2.70
2019-03-16T07:16:26.256Z,2.60
2019-03-16T07:17:30.679Z,3.10
2019-03-16T07:18:37.270Z,2.12
2019-03-16T07:19:43.283Z,1.80
2019-03-16T07:20:47.438Z,1.50
2019-03-16T07:21:51.634Z,1.40
2019-03-16T07:22:55.893Z,1.75
2019-03-16T07:24:03.095Z,1.90
2019-03-16T07:25:08.568Z,1.12
2019-03-16T07:26:16.746Z,2.00
2019-03-16T07:27:26.095Z,1.62
2019-03-16T07:28:28.400Z,1.07
2019-03-16T07:29:32.863Z,1.50
2019-03-16T07:30:47.095Z,1.75
2019-03-16T07:32:17.324Z,1.55
2019-03-16T07:33:25.930Z,2.17
2019-03-16T07:34:32.276Z,1.70
2019-03-16T07:35:36.306Z,1.75
2019-03-16T07:36:44.441Z,2.25
2019-03-16T07:37:57.501Z,1.80
2019-03-16T07:39:02.249Z,1.72
2019-03-16T07:40:11.834Z,1.90
2019-03-16T07:41:21.788Z,1.25
2019-03-16T07:42:27.433Z,1.80
2019-03-16T07:43:32.461Z,1.70
2019-03-16T07:44:37.521Z,1.50
2019-03-16T07:45:45.272Z,1.37
2019-03-16T07:46:51.875Z,1.30
2019-03-16T07:48:02.673Z,1.40
2019-03-16T07:49:06.898Z,1.10
2019-03-16T07:50:11.245Z,1.50
2019-03-16T07:51:19.970Z,1.40
2019-03-16T07:52:25.385Z,1.65
2019-03-16T07:53:33.135Z,1.27
2019-03-16T07:54:41.460Z,0.93
2019-03-16T07:55:47.295Z,1.12
2019-03-16T07:56:59.830Z,1.25
2019-03-16T07:58:05.132Z,1.07
2019-03-16T07:59:10.438Z,1.50
2019-03-16T08:00:15.783Z,1.40
2019-03-16T08:01:21.148Z,1.35
2019-03-16T08:02:30.405Z,1.62
2019-03-16T08:03:36.781Z,1.50
2019-03-16T08:04:43.457Z,1.50
2019-03-16T08:05:49.060Z,1.75
2019-03-16T08:06:54.300Z,1.30
2019-03-16T08:08:05.045Z,1.75
2019-03-16T08:09:13.593Z,1.50
2019-03-16T08:10:20.468Z,1.55
2019-03-16T08:11:26.482Z,1.92
2019-03-16T08:12:35.276Z,1.45
2019-03-16T08:13:43.582Z,1.70
2019-03-16T08:14:50.127Z,1.50
2019-03-16T08:15:55.742Z,1.40
2019-03-16T08:17:05.921Z,2.12
2019-03-16T08:18:11.610Z,2.08
2019-03-16T08:19:17.329Z,2.10
2019-03-16T08:20:32.259Z,2.80
2019-03-16T08:21:37.474Z,1.60
2019-03-16T08:22:43.791Z,2.27
2019-03-16T08:23:50.154Z,1.98
2019-03-16T08:24:55.223Z,1.72
2019-03-16T08:26:00.705Z,1.82
2019-03-16T08:27:07.681Z,1.57
2019-03-16T08:28:12.865Z,2.10
2019-03-16T08:29:22.455Z,2.47
2019-03-16T08:30:27.432Z,1.50
2019-03-16T08:31:34.190Z,2.08
2019-03-16T08:32:42.259Z,1.70
2019-03-16T08:33:49.853Z,3.33
2019-03-16T08:34:56.601Z,2.40
2019-03-16T08:36:02.080Z,2.62
2019-03-16T08:37:07.074Z,2.20
2019-03-16T08:38:15.429Z,1.98
2019-03-16T08:39:51.317Z,10.85
2019-03-16T08:41:01.838Z,2.55
2019-03-16T08:42:06.854Z,2.98
2019-03-16T08:43:32.507Z,2.95
2019-03-16T08:44:44.858Z,2.17
2019-03-16T08:45:49.954Z,3.50
2019-03-16T08:46:55.493Z,3.47
2019-03-16T08:48:02.519Z,3.10
2019-03-16T08:49:08.453Z,2.50
2019-03-16T08:50:15.404Z,2.70
2019-03-16T08:51:20.366Z,2.35
2019-03-16T08:52:30.866Z,2.87
2019-03-16T08:53:55.517Z,3.10
2019-03-16T08:55:10.443Z,2.58
2019-03-16T08:56:42.605Z,2.52
2019-03-16T08:57:51.671Z,2.87
2019-03-16T08:59:01.413Z,2.52
2019-03-16T09:00:12.077Z,3.65
2019-03-16T09:01:48.338Z,2.83
2019-03-16T09:03:09.225Z,3.27
2019-03-16T09:04:15.096Z,2.77
2019-03-16T09:05:21.735Z,2.80
2019-03-16T09:06:31.563Z,3.62
2019-03-16T09:08:29.830Z,3.12
2019-03-16T09:09:35.510Z,2.80
2019-03-16T09:11:08.959Z,2.60
2019-03-16T09:12:14.144Z,2.70
2019-03-16T09:13:21.555Z,3.65
2019-03-16T09:14:35.230Z,2.42
2019-03-16T09:15:40.709Z,2.80
2019-03-16T09:17:57.894Z,2.52
2019-03-16T09:19:44.802Z,3.92
2019-03-16T09:21:12.624Z,3.05
2019-03-16T09:22:44.745Z,2.80
2019-03-16T09:23:53.122Z,2.47
2019-03-16T09:24:59.887Z,2.95
2019-03-16T09:26:22.928Z,2.10
2019-03-16T09:27:36.575Z,2.70
2019-03-16T09:28:59.990Z,3.10
2019-03-16T09:30:04.251Z,2.95
2019-03-16T09:31:31.771Z,2.67
2019-03-16T09:32:40.526Z,2.22
2019-03-16T09:33:47.611Z,2.20
2019-03-16T09:35:06.030Z,2.70
2019-03-16T09:36:28.175Z,2.62
2019-03-16T09:37:34.758Z,2.90
2019-03-16T09:38:41.438Z,2.72
2019-03-16T09:39:53.641Z,2.40
2019-03-16T09:43:38.906Z,2.90
2019-03-16T09:46:24.045Z,2.80
2019-03-16T09:47:35.847Z,2.00
2019-03-16T09:48:59.096Z,2.02
2019-03-16T09:51:55.530Z,1.85
2019-03-16T09:56:00.235Z,2.92
2019-03-16T09:57:06.205Z,2.60
2019-03-16T09:58:30.773Z,2.40
2019-03-16T09:59:30.358Z,2.20
2019-03-16T10:00:44.505Z,1.80
2019-03-16T10:02:23.725Z,1.70
2019-03-16T10:03:34.422Z,4.80
2019-03-16T10:04:39.579Z,3.62
2019-03-16T10:05:44.780Z,3.40
2019-03-16T10:06:49.948Z,2.27
2019-03-16T10:08:00.035Z,1.80
2019-03-16T10:09:14.387Z,1.87
2019-03-16T10:10:51.451Z,1.70
2019-03-16T10:14:17.224Z,1.70
2019-03-16T10:16:56.756Z,1.50
2019-03-16T10:17:04.178Z,1.70
2019-03-16T10:18:15.060Z,1.75
2019-03-16T10:19:35.323Z,2.15
2019-03-16T10:21:03.643Z,1.90
2019-03-16T10:27:57.261Z,2.27
2019-03-16T10:28:43.570Z,1.37
2019-03-16T10:29:52.182Z,1.80
2019-03-16T10:30:58.354Z,1.75
2019-03-16T10:32:08.525Z,1.95
2019-03-16T10:34:59.862Z,1.70
2019-03-16T10:36:11.523Z,1.50
2019-03-16T10:37:17.728Z,1.70
2019-03-16T10:38:25.593Z,1.50
2019-03-16T10:39:56.658Z,1.60
2019-03-16T10:41:21.982Z,1.30
2019-03-16T10:42:27.360Z,1.07
2019-03-16T10:43:41.298Z,1.98
2019-03-16T10:45:03.998Z,1.60
2019-03-16T10:46:10.442Z,1.98
2019-03-16T10:47:29.417Z,1.32
2019-03-16T10:48:42.414Z,1.30
2019-03-16T10:49:55.247Z,1.55
2019-03-16T10:53:57.501Z,2.77
2019-03-16T10:57:26.161Z,1.77
2019-03-16T10:58:56.464Z,1.85
2019-03-16T11:00:44.259Z,1.98
2019-03-16T11:04:08.607Z,1.12
2019-03-16T11:05:17.226Z,1.80
2019-03-16T11:06:25.767Z,1.40
2019-03-16T11:07:35.170Z,1.90
2019-03-16T11:09:26.819Z,1.75
2019-03-16T11:10:32.262Z,1.52
2019-03-16T11:11:48.499Z,2.08
2019-03-16T11:13:00.697Z,1.67
2019-03-16T11:14:14.332Z,1.52
2019-03-16T11:15:22.134Z,1.62
2019-03-16T11:16:33.800Z,1.20
2019-03-16T11:17:41.591Z,1.10
2019-03-16T11:21:04.568Z,1.25
2019-03-16T11:22:36.543Z,1.67
2019-03-16T11:23:55.735Z,1.30
2019-03-16T11:25:09.599Z,1.25
2019-03-16T11:26:33.166Z,1.30
2019-03-16T11:28:03.475Z,1.50
2019-03-16T11:30:24.549Z,1.00
2019-03-16T11:31:06.993Z,1.30
2019-03-16T11:32:16.239Z,1.80
2019-03-16T11:33:25.904Z,1.30
2019-03-16T11:35:53.662Z,1.40
2019-03-16T11:37:05.183Z,1.45
2019-03-16T11:38:11.423Z,1.45
2019-03-16T11:39:44.002Z,1.47
2019-03-16T11:40:57.984Z,1.42
2019-03-16T11:42:40.135Z,1.45
2019-03-16T11:43:48.624Z,1.70
2019-03-16T11:44:55.688Z,1.35
2019-03-16T11:46:00.941Z,1.40
2019-03-16T11:47:07.227Z,2.52
2019-03-16T11:48:17.650Z,2.50
2019-03-16T11:49:29.944Z,3.25
2019-03-16T11:50:41.211Z,5.10
2019-03-16T11:51:50.759Z,3.00
2019-03-16T11:53:14.199Z,1.85
2019-03-16T11:54:39.295Z,3.67
2019-03-16T11:55:37.722Z,1.30
2019-03-16T11:56:48.244Z,1.50
2019-03-16T11:57:53.867Z,1.42
2019-03-16T11:59:20.966Z,1.17
2019-03-16T12:00:28.294Z,1.35
2019-03-16T12:01:38.965Z,3.90
2019-03-16T12:02:46.565Z,1.30
2019-03-16T12:03:53.552Z,1.37
2019-03-16T12:04:58.623Z,1.72
2019-03-16T12:06:04.711Z,1.27
2019-03-16T12:07:11.679Z,1.42
2019-03-16T12:08:21.223Z,0.80
2019-03-16T12:09:53.572Z,1.47
2019-03-16T12:11:02.426Z,1.57
2019-03-16T12:12:10.965Z,1.47
2019-03-16T12:13:19.438Z,1.90
2019-03-16T12:14:26.092Z,1.55
2019-03-16T12:15:45.747Z,1.20
2019-03-16T12:17:00.776Z,1.45
2019-03-16T12:18:12.473Z,1.90
2019-03-16T12:19:17.749Z,1.20
2019-03-16T12:20:26.430Z,1.20
2019-03-16T12:21:32.325Z,1.50
2019-03-16T12:22:37.965Z,1.25
2019-03-16T12:23:44.331Z,1.45
2019-03-16T12:24:50.104Z,1.10
2019-03-16T12:25:57.021Z,1.27
2019-03-16T12:27:02.812Z,1.22
2019-03-16T12:28:15.011Z,1.52
2019-03-16T12:29:20.180Z,1.80
2019-03-16T12:30:25.350Z,1.30
2019-03-16T12:31:30.374Z,2.05
2019-03-16T12:32:44.464Z,1.60
2019-03-16T12:33:52.713Z,1.20
2019-03-16T12:35:00.410Z,1.30
2019-03-16T12:36:08.954Z,1.70
2019-03-16T12:37:50.342Z,1.10
2019-03-16T12:38:59.713Z,2.30
2019-03-16T12:40:07.920Z,1.15
2019-03-16T12:41:23.548Z,1.55
2019-03-16T12:42:28.386Z,1.60
2019-03-16T12:43:40.020Z,1.45
2019-03-16T12:44:52.643Z,1.98
2019-03-16T12:46:11.877Z,1.80
2019-03-16T12:47:27.313Z,1.40
2019-03-16T12:48:33.239Z,2.25
2019-03-16T12:51:17.186Z,1.82
2019-03-16T12:52:26.653Z,1.90
2019-03-16T12:53:34.325Z,1.80
2019-03-16T12:54:43.880Z,1.70
2019-03-16T12:55:57.059Z,1.60
2019-03-16T12:57:04.774Z,1.52
2019-03-16T12:58:11.413Z,1.45
2019-03-16T12:59:25.346Z,1.90
2019-03-16T13:00:36.773Z,1.82
2019-03-16T13:01:45.206Z,1.20
2019-03-16T13:02:53.049Z,1.50
2019-03-16T13:04:07.412Z,1.45
2019-03-16T13:05:12.678Z,1.47
2019-03-16T13:06:20.427Z,2.00
2019-03-16T13:07:25.845Z,1.60
2019-03-16T13:08:31.687Z,2.00
2019-03-16T13:09:42.155Z,1.98
2019-03-16T13:10:54.052Z,1.60
2019-03-16T13:12:03.212Z,1.80
2019-03-16T13:13:15.911Z,1.77
2019-03-16T13:14:24.213Z,1.60
2019-03-16T13:15:31.030Z,1.70
2019-03-16T13:16:37.418Z,2.33
2019-03-16T13:17:45.663Z,3.45
2019-03-16T13:18:51.215Z,1.98
2019-03-16T13:19:56.953Z,3.55
2019-03-16T13:21:02.535Z,3.52
2019-03-16T13:22:07.708Z,2.37
2019-03-16T13:23:16.963Z,2.62
2019-03-16T13:24:22.638Z,3.17
2019-03-16T13:25:28.312Z,1.90
2019-03-16T13:26:34.057Z,2.25
2019-03-16T13:27:44.648Z,1.57
2019-03-16T13:28:56.068Z,2.10
2019-03-16T13:30:17.433Z,3.12
2019-03-16T13:31:32.809Z,3.45
2019-03-16T13:32:41.161Z,2.30
2019-03-16T13:33:46.934Z,1.80
2019-03-16T13:35:00.445Z,3.10
2019-03-16T13:36:09.751Z,1.80
2019-03-16T13:37:24.361Z,2.98
2019-03-16T13:39:23.361Z,1.57
2019-03-16T13:40:29.302Z,2.80
2019-03-16T13:41:40.779Z,1.90
2019-03-16T13:42:46.996Z,1.40
2019-03-16T13:43:54.847Z,1.77
2019-03-16T13:45:08.562Z,1.60
2019-03-16T13:46:13.789Z,3.25
2019-03-16T13:47:19.568Z,1.95
2019-03-16T13:48:24.567Z,2.37
2019-03-16T13:49:34.192Z,1.47
2019-03-16T13:50:39.411Z,2.00
2019-03-16T13:51:47.900Z,2.25
2019-03-16T13:52:53.245Z,1.87
2019-03-16T13:53:59.128Z,1.80
2019-03-16T13:55:07.752Z,2.65
2019-03-16T13:56:22.448Z,1.90
2019-03-16T13:57:31.278Z,1.60
2019-03-16T13:59:18.832Z,2.25
2019-03-16T14:00:31.602Z,2.50
2019-03-16T14:01:40.036Z,2.15
2019-03-16T14:02:45.684Z,1.92
2019-03-16T14:04:21.684Z,2.10
2019-03-16T14:05:38.944Z,2.20
2019-03-16T14:07:04.382Z,2.00
2019-03-16T14:08:12.421Z,2.25
2019-03-16T14:09:58.453Z,3.10
2019-03-16T14:11:43.720Z,2.20
2019-03-16T14:13:02.339Z,2.40
2019-03-16T14:14:30.639Z,2.30
2019-03-16T14:17:37.963Z,1.35
2019-03-16T14:18:43.744Z,2.30
2019-03-16T14:20:25.627Z,1.60
2019-03-16T14:21:34.926Z,2.10
2019-03-16T14:25:50.408Z,1.35
2019-03-16T14:26:57.879Z,2.00
2019-03-16T14:32:46.410Z,2.83
2019-03-16T14:34:22.370Z,2.25
2019-03-16T14:35:39.192Z,2.33
2019-03-16T14:37:49.245Z,2.17
2019-03-16T14:38:58.088Z,2.20
2019-03-16T14:40:08.260Z,2.35
2019-03-16T14:41:26.471Z,2.20
2019-03-16T14:42:29.666Z,2.65
2019-03-16T14:43:36.985Z,2.22
2019-03-16T14:44:47.021Z,2.27
2019-03-16T14:45:52.481Z,2.33
2019-03-16T14:46:58.010Z,2.25
2019-03-16T14:48:05.976Z,3.98
2019-03-16T14:49:11.392Z,2.75
2019-03-16T14:50:18.489Z,4.53
2019-03-16T14:51:29.842Z,3.05
2019-03-16T14:52:43.480Z,2.15
2019-03-16T14:53:48.540Z,2.33
2019-03-16T14:54:54.397Z,2.00
2019-03-16T14:56:00.331Z,1.95
2019-03-16T14:57:14.267Z,1.60
2019-03-16T14:58:22.487Z,2.08
2019-03-16T14:59:27.765Z,3.37
2019-03-16T15:00:38.367Z,2.55
2019-03-16T15:01:41.393Z,3.12
2019-03-16T15:02:52.395Z,2.00
2019-03-16T15:03:58.917Z,1.50
2019-03-16T15:05:08.791Z,3.33
2019-03-16T15:06:15.488Z,2.83
2019-03-16T15:07:23.192Z,2.30
2019-03-16T15:08:30.782Z,5.00
2019-03-16T15:09:36.605Z,4.95
2019-03-16T15:10:43.964Z,2.92
2019-03-16T15:11:49.383Z,1.90
2019-03-16T15:12:54.499Z,1.75
2019-03-16T15:14:03.188Z,1.85
2019-03-16T15:15:10.922Z,1.90
2019-03-16T15:16:19.547Z,2.37
2019-03-16T15:17:25.590Z,1.90
2019-03-16T15:18:30.655Z,2.05
2019-03-16T15:19:38.653Z,2.50
2019-03-16T15:20:43.727Z,3.20
2019-03-16T15:21:48.918Z,2.65
2019-03-16T15:22:55.273Z,2.92
2019-03-16T15:24:04.405Z,2.10
2019-03-16T15:25:11.371Z,2.65
2019-03-16T15:26:17.483Z,2.67
2019-03-16T15:27:25.930Z,2.75
2019-03-16T15:28:31.517Z,3.08
2019-03-16T15:29:45.215Z,2.25
2019-03-16T15:30:54.448Z,2.08
2019-03-16T15:31:57.468Z,5.33
2019-03-16T15:33:05.371Z,4.50
2019-03-16T15:34:10.547Z,2.90
2019-03-16T15:35:16.285Z,3.10
2019-03-16T15:36:24.016Z,3.05
2019-03-16T15:37:29.387Z,3.05
2019-03-16T15:38:38.513Z,2.40
2019-03-16T15:39:44.038Z,3.05
2019-03-16T15:40:49.168Z,5.60
2019-03-16T15:41:57.440Z,4.97
2019-03-16T15:43:02.430Z,2.83
2019-03-16T15:44:07.924Z,5.15
2019-03-16T15:45:17.116Z,3.70
2019-03-16T15:46:24.815Z,2.85
2019-03-16T15:47:30.213Z,2.50
2019-03-16T15:48:35.406Z,2.77
2019-03-16T15:49:43.323Z,3.40
2019-03-16T15:50:51.193Z,2.08
2019-03-16T15:51:56.371Z,2.50
2019-03-16T15:53:03.451Z,2.12
2019-03-16T15:54:08.691Z,3.22
2019-03-16T15:55:16.931Z,2.22
2019-03-16T15:56:28.585Z,3.10
2019-03-16T15:57:37.664Z,2.30
2019-03-16T15:58:43.817Z,2.50
2019-03-16T15:59:51.520Z,4.20
2019-03-16T16:01:03.455Z,2.33
2019-03-16T16:02:05.522Z,3.20
2019-03-16T16:03:10.581Z,4.47
2019-03-16T16:04:20.092Z,3.00
2019-03-16T16:05:28.927Z,2.55
2019-03-16T16:06:34.389Z,3.35
2019-03-16T16:07:39.646Z,3.08
2019-03-16T16:08:48.458Z,3.30
2019-03-16T16:09:56.198Z,2.90
2019-03-16T16:11:03.146Z,2.20